sensor_id;sensor_type;location;lat;lon;timestamp;P1;durP1;ratioP1;P2;durP2;ratioP2
47555;SDS011;33291;46.222;26.460;2023-11-21T00:01:00;10.90;;;4.85;;
47555;SDS011;33291;46.222;26.460;2023-11-21T00:03:28;16.50;;;6.97;;
47555;SDS011;33291;46.222;26.460;2023-11-21T00:05:54;8.88;;;3.75;;
47555;SDS011;33291;46.222;26.460;2023-11-21T00:08:20;10.25;;;5.05;;
47555;SDS011;33291;46.222;26.460;2023-11-21T00:10:45;3.92;;;1.58;;
47555;SDS011;33291;46.222;26.460;2023-11-21T00:13:10;4.55;;;1.95;;
47555;SDS011;33291;46.222;26.460;2023-11-21T00:15:37;1.60;;;0.80;;
47555;SDS011;33291;46.222;26.460;2023-11-21T00:18:03;2.25;;;1.15;;
47555;SDS011;33291;46.222;26.460;2023-11-21T00:20:28;3.10;;;1.30;;
47555;SDS011;33291;46.222;26.460;2023-11-21T00:22:54;3.42;;;1.85;;
47555;SDS011;33291;46.222;26.460;2023-11-21T00:25:19;5.20;;;2.45;;
47555;SDS011;33291;46.222;26.460;2023-11-21T00:27:45;11.10;;;3.80;;
47555;SDS011;33291;46.222;26.460;2023-11-21T00:30:10;11.45;;;5.68;;
47555;SDS011;33291;46.222;26.460;2023-11-21T00:32:37;13.15;;;6.50;;
47555;SDS011;33291;46.222;26.460;2023-11-21T00:35:03;11.07;;;4.45;;
47555;SDS011;33291;46.222;26.460;2023-11-21T00:37:29;3.53;;;1.80;;
47555;SDS011;33291;46.222;26.460;2023-11-21T00:39:56;4.82;;;1.67;;
47555;SDS011;33291;46.222;26.460;2023-11-21T00:42:21;3.28;;;1.70;;
47555;SDS011;33291;46.222;26.460;2023-11-21T00:44:47;3.38;;;1.13;;
47555;SDS011;33291;46.222;26.460;2023-11-21T00:47:13;3.72;;;1.35;;
47555;SDS011;33291;46.222;26.460;2023-11-21T00:49:38;4.82;;;2.38;;
47555;SDS011;33291;46.222;26.460;2023-11-21T00:52:04;8.48;;;4.22;;
47555;SDS011;33291;46.222;26.460;2023-11-21T00:54:30;9.68;;;4.50;;
47555;SDS011;33291;46.222;26.460;2023-11-21T00:56:55;8.30;;;3.83;;
47555;SDS011;33291;46.222;26.460;2023-11-21T00:59:21;7.57;;;4.13;;
47555;SDS011;33291;46.222;26.460;2023-11-21T01:01:48;8.60;;;4.32;;
47555;SDS011;33291;46.222;26.460;2023-11-21T01:04:13;9.10;;;3.80;;
47555;SDS011;33291;46.222;26.460;2023-11-21T01:06:39;4.95;;;3.20;;
47555;SDS011;33291;46.222;26.460;2023-11-21T01:09:04;6.82;;;3.10;;
47555;SDS011;33291;46.222;26.460;2023-11-21T01:11:36;5.32;;;2.53;;
47555;SDS011;33291;46.222;26.460;2023-11-21T01:14:03;5.03;;;2.65;;
47555;SDS011;33291;46.222;26.460;2023-11-21T01:16:29;4.53;;;2.80;;
47555;SDS011;33291;46.222;26.460;2023-11-21T01:18:57;6.57;;;3.33;;
47555;SDS011;33291;46.222;26.460;2023-11-21T01:21:24;5.85;;;3.00;;
47555;SDS011;33291;46.222;26.460;2023-11-21T01:23:49;9.88;;;3.53;;
47555;SDS011;33291;46.222;26.460;2023-11-21T01:26:15;6.03;;;2.70;;
47555;SDS011;33291;46.222;26.460;2023-11-21T01:28:40;5.13;;;2.30;;
47555;SDS011;33291;46.222;26.460;2023-11-21T01:31:06;7.55;;;3.38;;
47555;SDS011;33291;46.222;26.460;2023-11-21T01:33:32;4.32;;;1.75;;
47555;SDS011;33291;46.222;26.460;2023-11-21T01:35:58;7.97;;;2.83;;
47555;SDS011;33291;46.222;26.460;2023-11-21T01:38:25;3.58;;;2.25;;
47555;SDS011;33291;46.222;26.460;2023-11-21T01:40:50;4.20;;;2.05;;
47555;SDS011;33291;46.222;26.460;2023-11-21T01:43:16;5.35;;;2.83;;
47555;SDS011;33291;46.222;26.460;2023-11-21T01:45:42;4.55;;;2.67;;
47555;SDS011;33291;46.222;26.460;2023-11-21T01:48:07;4.55;;;2.50;;
47555;SDS011;33291;46.222;26.460;2023-11-21T01:50:33;4.85;;;1.92;;
47555;SDS011;33291;46.222;26.460;2023-11-21T01:52:59;12.48;;;6.85;;
47555;SDS011;33291;46.222;26.460;2023-11-21T01:55:26;13.48;;;5.13;;
47555;SDS011;33291;46.222;26.460;2023-11-21T01:57:52;10.65;;;5.00;;
47555;SDS011;33291;46.222;26.460;2023-11-21T02:00:19;5.22;;;3.28;;
47555;SDS011;33291;46.222;26.460;2023-11-21T02:02:46;5.03;;;2.95;;
47555;SDS011;33291;46.222;26.460;2023-11-21T02:05:12;7.18;;;2.95;;
47555;SDS011;33291;46.222;26.460;2023-11-21T02:07:39;6.90;;;3.03;;
47555;SDS011;33291;46.222;26.460;2023-11-21T02:10:07;1.88;;;1.10;;
47555;SDS011;33291;46.222;26.460;2023-11-21T02:12:33;4.07;;;2.28;;
47555;SDS011;33291;46.222;26.460;2023-11-21T02:15:00;0.70;;;0.38;;
47555;SDS011;33291;46.222;26.460;2023-11-21T02:17:28;0.75;;;0.70;;
47555;SDS011;33291;46.222;26.460;2023-11-21T02:19:53;3.35;;;1.00;;
47555;SDS011;33291;46.222;26.460;2023-11-21T02:22:19;2.35;;;1.15;;
47555;SDS011;33291;46.222;26.460;2023-11-21T02:24:45;2.55;;;1.52;;
47555;SDS011;33291;46.222;26.460;2023-11-21T02:27:11;3.08;;;1.00;;
47555;SDS011;33291;46.222;26.460;2023-11-21T02:29:37;3.47;;;1.85;;
47555;SDS011;33291;46.222;26.460;2023-11-21T02:32:03;11.85;;;2.42;;
47555;SDS011;33291;46.222;26.460;2023-11-21T02:34:28;3.50;;;1.67;;
47555;SDS011;33291;46.222;26.460;2023-11-21T02:36:54;6.45;;;2.65;;
47555;SDS011;33291;46.222;26.460;2023-11-21T02:39:20;7.15;;;3.90;;
47555;SDS011;33291;46.222;26.460;2023-11-21T02:41:47;9.85;;;3.95;;
47555;SDS011;33291;46.222;26.460;2023-11-21T02:44:13;4.88;;;3.17;;
47555;SDS011;33291;46.222;26.460;2023-11-21T02:46:38;4.15;;;2.70;;
47555;SDS011;33291;46.222;26.460;2023-11-21T02:49:04;7.55;;;3.35;;
47555;SDS011;33291;46.222;26.460;2023-11-21T02:51:35;5.90;;;2.40;;
47555;SDS011;33291;46.222;26.460;2023-11-21T02:54:03;4.05;;;2.47;;
47555;SDS011;33291;46.222;26.460;2023-11-21T02:56:31;16.67;;;7.25;;
47555;SDS011;33291;46.222;26.460;2023-11-21T02:58:59;9.13;;;3.60;;
47555;SDS011;33291;46.222;26.460;2023-11-21T03:01:25;5.07;;;2.72;;
47555;SDS011;33291;46.222;26.460;2023-11-21T03:03:51;7.40;;;3.78;;
47555;SDS011;33291;46.222;26.460;2023-11-21T03:06:17;6.55;;;3.38;;
47555;SDS011;33291;46.222;26.460;2023-11-21T03:08:44;6.75;;;2.90;;
47555;SDS011;33291;46.222;26.460;2023-11-21T03:11:09;3.55;;;2.28;;
47555;SDS011;33291;46.222;26.460;2023-11-21T03:13:35;5.05;;;2.58;;
47555;SDS011;33291;46.222;26.460;2023-11-21T03:16:00;5.65;;;3.03;;
47555;SDS011;33291;46.222;26.460;2023-11-21T03:18:26;4.60;;;2.58;;
47555;SDS011;33291;46.222;26.460;2023-11-21T03:20:54;2.50;;;1.75;;
47555;SDS011;33291;46.222;26.460;2023-11-21T03:23:19;2.78;;;1.60;;
47555;SDS011;33291;46.222;26.460;2023-11-21T03:25:45;4.10;;;1.77;;
47555;SDS011;33291;46.222;26.460;2023-11-21T03:28:10;3.40;;;1.40;;
47555;SDS011;33291;46.222;26.460;2023-11-21T03:30:36;2.45;;;1.33;;
47555;SDS011;33291;46.222;26.460;2023-11-21T03:33:01;1.77;;;1.30;;
47555;SDS011;33291;46.222;26.460;2023-11-21T03:35:27;6.13;;;2.75;;
47555;SDS011;33291;46.222;26.460;2023-11-21T03:37:53;18.73;;;9.98;;
47555;SDS011;33291;46.222;26.460;2023-11-21T03:40:19;9.32;;;4.28;;
47555;SDS011;33291;46.222;26.460;2023-11-21T03:42:46;6.03;;;3.08;;
47555;SDS011;33291;46.222;26.460;2023-11-21T03:45:12;12.38;;;4.82;;
47555;SDS011;33291;46.222;26.460;2023-11-21T03:47:38;10.40;;;4.85;;
47555;SDS011;33291;46.222;26.460;2023-11-21T03:50:04;11.77;;;4.95;;
47555;SDS011;33291;46.222;26.460;2023-11-21T03:52:30;7.13;;;3.28;;
47555;SDS011;33291;46.222;26.460;2023-11-21T03:54:55;7.63;;;3.67;;
47555;SDS011;33291;46.222;26.460;2023-11-21T03:57:21;4.45;;;2.13;;
47555;SDS011;33291;46.222;26.460;2023-11-21T03:59:47;5.45;;;2.83;;
47555;SDS011;33291;46.222;26.460;2023-11-21T04:02:12;7.95;;;3.20;;
47555;SDS011;33291;46.222;26.460;2023-11-21T04:04:38;6.55;;;3.03;;
47555;SDS011;33291;46.222;26.460;2023-11-21T04:07:04;17.35;;;7.93;;
47555;SDS011;33291;46.222;26.460;2023-11-21T04:09:30;20.20;;;8.43;;
47555;SDS011;33291;46.222;26.460;2023-11-21T04:11:55;19.00;;;7.05;;
47555;SDS011;33291;46.222;26.460;2023-11-21T04:14:22;19.45;;;9.32;;
47555;SDS011;33291;46.222;26.460;2023-11-21T04:16:47;23.63;;;11.05;;
47555;SDS011;33291;46.222;26.460;2023-11-21T04:19:13;23.58;;;10.65;;
47555;SDS011;33291;46.222;26.460;2023-11-21T04:21:40;22.27;;;9.50;;
47555;SDS011;33291;46.222;26.460;2023-11-21T04:24:06;21.25;;;10.65;;
47555;SDS011;33291;46.222;26.460;2023-11-21T04:26:32;23.95;;;11.98;;
47555;SDS011;33291;46.222;26.460;2023-11-21T04:28:57;22.92;;;10.82;;
47555;SDS011;33291;46.222;26.460;2023-11-21T04:31:22;22.38;;;9.75;;
47555;SDS011;33291;46.222;26.460;2023-11-21T04:33:48;12.98;;;4.50;;
47555;SDS011;33291;46.222;26.460;2023-11-21T04:36:14;19.98;;;8.15;;
47555;SDS011;33291;46.222;26.460;2023-11-21T04:38:39;8.43;;;3.60;;
47555;SDS011;33291;46.222;26.460;2023-11-21T04:41:05;13.57;;;6.00;;
47555;SDS011;33291;46.222;26.460;2023-11-21T04:43:31;14.10;;;4.47;;
47555;SDS011;33291;46.222;26.460;2023-11-21T04:45:56;6.80;;;3.25;;
47555;SDS011;33291;46.222;26.460;2023-11-21T04:48:22;9.02;;;4.43;;
47555;SDS011;33291;46.222;26.460;2023-11-21T04:50:47;7.22;;;3.60;;
47555;SDS011;33291;46.222;26.460;2023-11-21T04:53:13;5.88;;;2.60;;
47555;SDS011;33291;46.222;26.460;2023-11-21T04:55:39;6.03;;;2.50;;
47555;SDS011;33291;46.222;26.460;2023-11-21T04:58:06;4.80;;;2.38;;
47555;SDS011;33291;46.222;26.460;2023-11-21T05:00:33;21.02;;;3.72;;
47555;SDS011;33291;46.222;26.460;2023-11-21T05:02:58;3.50;;;1.98;;
47555;SDS011;33291;46.222;26.460;2023-11-21T05:05:26;8.40;;;4.13;;
47555;SDS011;33291;46.222;26.460;2023-11-21T05:07:52;13.07;;;3.90;;
47555;SDS011;33291;46.222;26.460;2023-11-21T05:10:18;2.92;;;1.30;;
47555;SDS011;33291;46.222;26.460;2023-11-21T05:12:44;3.22;;;1.80;;
47555;SDS011;33291;46.222;26.460;2023-11-21T05:15:10;3.38;;;1.75;;
47555;SDS011;33291;46.222;26.460;2023-11-21T05:17:39;3.47;;;1.55;;
47555;SDS011;33291;46.222;26.460;2023-11-21T05:20:09;1.77;;;0.70;;
47555;SDS011;33291;46.222;26.460;2023-11-21T05:22:36;1.85;;;0.75;;
47555;SDS011;33291;46.222;26.460;2023-11-21T05:25:02;4.03;;;2.00;;
47555;SDS011;33291;46.222;26.460;2023-11-21T05:27:29;6.03;;;2.10;;
47555;SDS011;33291;46.222;26.460;2023-11-21T05:29:58;5.45;;;1.90;;
47555;SDS011;33291;46.222;26.460;2023-11-21T05:32:24;1.25;;;0.70;;
47555;SDS011;33291;46.222;26.460;2023-11-21T05:34:50;2.25;;;1.17;;
47555;SDS011;33291;46.222;26.460;2023-11-21T05:37:16;3.42;;;1.67;;
47555;SDS011;33291;46.222;26.460;2023-11-21T05:39:42;4.70;;;2.08;;
47555;SDS011;33291;46.222;26.460;2023-11-21T05:42:08;4.70;;;2.65;;
47555;SDS011;33291;46.222;26.460;2023-11-21T05:44:35;2.47;;;1.88;;
47555;SDS011;33291;46.222;26.460;2023-11-21T05:47:02;3.22;;;1.25;;
47555;SDS011;33291;46.222;26.460;2023-11-21T05:49:28;6.50;;;3.00;;
47555;SDS011;33291;46.222;26.460;2023-11-21T05:51:55;3.03;;;1.80;;
47555;SDS011;33291;46.222;26.460;2023-11-21T05:54:21;6.20;;;2.65;;
47555;SDS011;33291;46.222;26.460;2023-11-21T05:56:47;8.07;;;4.75;;
47555;SDS011;33291;46.222;26.460;2023-11-21T05:59:12;7.47;;;3.30;;
47555;SDS011;33291;46.222;26.460;2023-11-21T06:01:38;8.27;;;3.90;;
47555;SDS011;33291;46.222;26.460;2023-11-21T06:04:04;6.75;;;3.60;;
47555;SDS011;33291;46.222;26.460;2023-11-21T06:06:30;8.73;;;3.40;;
47555;SDS011;33291;46.222;26.460;2023-11-21T06:08:56;12.25;;;6.38;;
47555;SDS011;33291;46.222;26.460;2023-11-21T06:11:22;8.13;;;4.93;;
47555;SDS011;33291;46.222;26.460;2023-11-21T06:13:47;9.07;;;4.53;;
47555;SDS011;33291;46.222;26.460;2023-11-21T06:16:13;8.43;;;5.20;;
47555;SDS011;33291;46.222;26.460;2023-11-21T06:18:41;8.20;;;3.88;;
47555;SDS011;33291;46.222;26.460;2023-11-21T06:21:09;8.65;;;4.40;;
47555;SDS011;33291;46.222;26.460;2023-11-21T06:23:34;9.85;;;4.38;;
47555;SDS011;33291;46.222;26.460;2023-11-21T06:26:00;12.65;;;5.75;;
47555;SDS011;33291;46.222;26.460;2023-11-21T06:28:26;12.27;;;5.97;;
47555;SDS011;33291;46.222;26.460;2023-11-21T06:30:51;14.35;;;6.25;;
47555;SDS011;33291;46.222;26.460;2023-11-21T06:33:18;12.55;;;6.03;;
47555;SDS011;33291;46.222;26.460;2023-11-21T06:35:44;14.55;;;7.22;;
47555;SDS011;33291;46.222;26.460;2023-11-21T06:38:10;15.57;;;7.60;;
47555;SDS011;33291;46.222;26.460;2023-11-21T06:40:35;17.73;;;8.43;;
47555;SDS011;33291;46.222;26.460;2023-11-21T06:43:01;19.35;;;10.02;;
47555;SDS011;33291;46.222;26.460;2023-11-21T06:45:27;19.27;;;11.05;;
47555;SDS011;33291;46.222;26.460;2023-11-21T06:47:52;21.55;;;11.55;;
47555;SDS011;33291;46.222;26.460;2023-11-21T06:50:18;13.52;;;7.63;;
47555;SDS011;33291;46.222;26.460;2023-11-21T06:52:43;23.77;;;10.73;;
47555;SDS011;33291;46.222;26.460;2023-11-21T06:55:09;19.33;;;10.32;;
47555;SDS011;33291;46.222;26.460;2023-11-21T06:57:35;31.40;;;14.43;;
47555;SDS011;33291;46.222;26.460;2023-11-21T07:00:02;25.38;;;13.52;;
47555;SDS011;33291;46.222;26.460;2023-11-21T07:02:28;26.75;;;12.68;;
47555;SDS011;33291;46.222;26.460;2023-11-21T07:04:54;24.80;;;11.70;;
47555;SDS011;33291;46.222;26.460;2023-11-21T07:07:19;30.10;;;12.85;;
47555;SDS011;33291;46.222;26.460;2023-11-21T07:09:45;26.00;;;11.88;;
47555;SDS011;33291;46.222;26.460;2023-11-21T07:12:10;47.72;;;20.42;;
47555;SDS011;33291;46.222;26.460;2023-11-21T07:14:36;33.60;;;14.65;;
47555;SDS011;33291;46.222;26.460;2023-11-21T07:17:04;30.42;;;14.30;;
47555;SDS011;33291;46.222;26.460;2023-11-21T07:19:29;26.25;;;12.82;;
47555;SDS011;33291;46.222;26.460;2023-11-21T07:21:55;17.67;;;7.53;;
47555;SDS011;33291;46.222;26.460;2023-11-21T07:24:21;18.25;;;7.82;;
47555;SDS011;33291;46.222;26.460;2023-11-21T07:26:48;25.88;;;12.27;;
47555;SDS011;33291;46.222;26.460;2023-11-21T07:29:13;9.07;;;4.50;;
47555;SDS011;33291;46.222;26.460;2023-11-21T07:31:39;57.38;;;25.17;;
47555;SDS011;33291;46.222;26.460;2023-11-21T07:34:06;58.65;;;25.75;;
47555;SDS011;33291;46.222;26.460;2023-11-21T07:36:33;27.52;;;12.70;;
47555;SDS011;33291;46.222;26.460;2023-11-21T07:38:58;20.45;;;9.68;;
47555;SDS011;33291;46.222;26.460;2023-11-21T07:41:24;13.90;;;5.90;;
47555;SDS011;33291;46.222;26.460;2023-11-21T07:43:49;12.18;;;5.50;;
47555;SDS011;33291;46.222;26.460;2023-11-21T07:46:15;13.32;;;7.57;;
47555;SDS011;33291;46.222;26.460;2023-11-21T07:48:41;14.40;;;7.15;;
47555;SDS011;33291;46.222;26.460;2023-11-21T07:51:07;13.45;;;6.75;;
47555;SDS011;33291;46.222;26.460;2023-11-21T07:53:33;13.48;;;6.25;;
47555;SDS011;33291;46.222;26.460;2023-11-21T07:56:03;5.97;;;2.33;;
47555;SDS011;33291;46.222;26.460;2023-11-21T07:58:35;5.90;;;3.00;;
47555;SDS011;33291;46.222;26.460;2023-11-21T08:01:01;5.10;;;2.55;;
47555;SDS011;33291;46.222;26.460;2023-11-21T08:03:28;8.10;;;3.53;;
47555;SDS011;33291;46.222;26.460;2023-11-21T08:05:55;3.75;;;2.25;;
47555;SDS011;33291;46.222;26.460;2023-11-21T08:08:24;15.32;;;7.05;;
47555;SDS011;33291;46.222;26.460;2023-11-21T08:10:51;10.85;;;3.28;;
47555;SDS011;33291;46.222;26.460;2023-11-21T08:13:25;8.15;;;4.38;;
47555;SDS011;33291;46.222;26.460;2023-11-21T08:15:54;3.97;;;1.95;;
47555;SDS011;33291;46.222;26.460;2023-11-21T08:18:21;3.25;;;2.05;;
47555;SDS011;33291;46.222;26.460;2023-11-21T08:20:46;2.70;;;1.60;;
47555;SDS011;33291;46.222;26.460;2023-11-21T08:23:15;2.00;;;0.85;;
47555;SDS011;33291;46.222;26.460;2023-11-21T08:25:42;2.08;;;1.10;;
47555;SDS011;33291;46.222;26.460;2023-11-21T08:28:11;4.18;;;1.70;;
47555;SDS011;33291;46.222;26.460;2023-11-21T08:30:37;1.77;;;0.88;;
47555;SDS011;33291;46.222;26.460;2023-11-21T08:33:03;2.20;;;0.88;;
47555;SDS011;33291;46.222;26.460;2023-11-21T08:35:29;2.92;;;1.00;;
47555;SDS011;33291;46.222;26.460;2023-11-21T08:37:54;3.15;;;0.65;;
47555;SDS011;33291;46.222;26.460;2023-11-21T08:40:20;10.10;;;4.30;;
47555;SDS011;33291;46.222;26.460;2023-11-21T08:42:46;4.18;;;2.13;;
47555;SDS011;33291;46.222;26.460;2023-11-21T08:45:13;1.40;;;0.52;;
47555;SDS011;33291;46.222;26.460;2023-11-21T08:47:42;6.70;;;2.03;;
47555;SDS011;33291;46.222;26.460;2023-11-21T08:50:09;4.57;;;2.80;;
47555;SDS011;33291;46.222;26.460;2023-11-21T08:52:37;3.13;;;1.67;;
47555;SDS011;33291;46.222;26.460;2023-11-21T08:55:06;4.65;;;2.00;;
47555;SDS011;33291;46.222;26.460;2023-11-21T08:57:37;1.10;;;0.70;;
47555;SDS011;33291;46.222;26.460;2023-11-21T09:00:04;4.50;;;2.58;;
47555;SDS011;33291;46.222;26.460;2023-11-21T09:02:32;2.47;;;0.57;;
47555;SDS011;33291;46.222;26.460;2023-11-21T09:04:59;3.08;;;1.00;;
47555;SDS011;33291;46.222;26.460;2023-11-21T09:07:28;2.67;;;0.63;;
47555;SDS011;33291;46.222;26.460;2023-11-21T09:09:54;2.47;;;0.60;;
47555;SDS011;33291;46.222;26.460;2023-11-21T09:12:20;1.27;;;0.32;;
47555;SDS011;33291;46.222;26.460;2023-11-21T09:14:46;6.35;;;4.70;;
47555;SDS011;33291;46.222;26.460;2023-11-21T09:17:11;2.47;;;1.90;;
47555;SDS011;33291;46.222;26.460;2023-11-21T09:19:37;3.20;;;2.20;;
47555;SDS011;33291;46.222;26.460;2023-11-21T09:22:03;3.40;;;2.28;;
47555;SDS011;33291;46.222;26.460;2023-11-21T09:24:30;3.13;;;1.13;;
47555;SDS011;33291;46.222;26.460;2023-11-21T09:26:59;1.27;;;0.70;;
47555;SDS011;33291;46.222;26.460;2023-11-21T09:29:28;1.25;;;0.57;;
47555;SDS011;33291;46.222;26.460;2023-11-21T09:31:54;4.90;;;1.10;;
47555;SDS011;33291;46.222;26.460;2023-11-21T09:34:20;1.05;;;0.65;;
47555;SDS011;33291;46.222;26.460;2023-11-21T09:36:46;2.58;;;1.15;;
47555;SDS011;33291;46.222;26.460;2023-11-21T09:39:12;2.25;;;1.42;;
47555;SDS011;33291;46.222;26.460;2023-11-21T09:41:57;2.45;;;1.00;;
47555;SDS011;33291;46.222;26.460;2023-11-21T09:44:39;4.80;;;0.70;;
47555;SDS011;33291;46.222;26.460;2023-11-21T09:47:24;1.52;;;0.68;;
47555;SDS011;33291;46.222;26.460;2023-11-21T09:49:49;3.05;;;0.70;;
47555;SDS011;33291;46.222;26.460;2023-11-21T09:52:22;2.05;;;0.90;;
47555;SDS011;33291;46.222;26.460;2023-11-21T09:54:53;6.18;;;3.00;;
47555;SDS011;33291;46.222;26.460;2023-11-21T09:57:22;1.75;;;0.85;;
47555;SDS011;33291;46.222;26.460;2023-11-21T09:59:52;5.53;;;1.45;;
47555;SDS011;33291;46.222;26.460;2023-11-21T10:02:30;15.00;;;7.60;;
47555;SDS011;33291;46.222;26.460;2023-11-21T10:05:01;28.63;;;13.27;;
47555;SDS011;33291;46.222;26.460;2023-11-21T10:07:28;7.93;;;3.95;;
47555;SDS011;33291;46.222;26.460;2023-11-21T10:09:56;2.72;;;1.33;;
47555;SDS011;33291;46.222;26.460;2023-11-21T10:12:24;3.53;;;1.55;;
47555;SDS011;33291;46.222;26.460;2023-11-21T10:14:52;4.00;;;1.88;;
47555;SDS011;33291;46.222;26.460;2023-11-21T10:17:20;58.88;;;26.00;;
47555;SDS011;33291;46.222;26.460;2023-11-21T10:19:51;58.47;;;25.80;;
47555;SDS011;33291;46.222;26.460;2023-11-21T10:22:18;31.40;;;13.35;;
47555;SDS011;33291;46.222;26.460;2023-11-21T10:24:45;20.67;;;11.20;;
47555;SDS011;33291;46.222;26.460;2023-11-21T10:27:11;5.43;;;2.78;;
47555;SDS011;33291;46.222;26.460;2023-11-21T10:29:38;6.03;;;2.83;;
47555;SDS011;33291;46.222;26.460;2023-11-21T10:32:04;3.20;;;1.70;;
47555;SDS011;33291;46.222;26.460;2023-11-21T10:34:30;4.10;;;2.35;;
47555;SDS011;33291;46.222;26.460;2023-11-21T10:36:56;3.05;;;1.92;;
47555;SDS011;33291;46.222;26.460;2023-11-21T10:39:23;4.32;;;1.95;;
47555;SDS011;33291;46.222;26.460;2023-11-21T10:41:55;10.37;;;6.60;;
47555;SDS011;33291;46.222;26.460;2023-11-21T10:44:21;2.35;;;1.05;;
47555;SDS011;33291;46.222;26.460;2023-11-21T10:46:52;4.55;;;2.00;;
47555;SDS011;33291;46.222;26.460;2023-11-21T10:49:21;1.70;;;0.80;;
47555;SDS011;33291;46.222;26.460;2023-11-21T10:51:51;2.05;;;0.80;;
47555;SDS011;33291;46.222;26.460;2023-11-21T10:54:21;2.08;;;0.80;;
47555;SDS011;33291;46.222;26.460;2023-11-21T10:56:48;1.45;;;0.80;;
47555;SDS011;33291;46.222;26.460;2023-11-21T10:59:25;3.30;;;0.55;;
47555;SDS011;33291;46.222;26.460;2023-11-21T11:01:54;8.43;;;0.90;;
47555;SDS011;33291;46.222;26.460;2023-11-21T11:04:23;5.10;;;1.67;;
47555;SDS011;33291;46.222;26.460;2023-11-21T11:06:55;1.33;;;0.57;;
47555;SDS011;33291;46.222;26.460;2023-11-21T11:09:23;3.60;;;1.00;;
47555;SDS011;33291;46.222;26.460;2023-11-21T11:11:48;1.58;;;1.42;;
47555;SDS011;33291;46.222;26.460;2023-11-21T11:14:16;1.92;;;0.80;;
47555;SDS011;33291;46.222;26.460;2023-11-21T11:16:44;3.70;;;0.90;;
47555;SDS011;33291;46.222;26.460;2023-11-21T11:19:10;3.40;;;0.52;;
47555;SDS011;33291;46.222;26.460;2023-11-21T11:21:53;1.80;;;1.30;;
47555;SDS011;33291;46.222;26.460;2023-11-21T11:24:45;6.07;;;1.50;;
47555;SDS011;33291;46.222;26.460;2023-11-21T11:30:30;4.30;;;0.60;;
47555;SDS011;33291;46.222;26.460;2023-11-21T11:38:48;1.00;;;0.43;;
47555;SDS011;33291;46.222;26.460;2023-11-21T11:41:24;3.65;;;1.75;;
47555;SDS011;33291;46.222;26.460;2023-11-21T11:43:52;2.80;;;1.42;;
47555;SDS011;33291;46.222;26.460;2023-11-21T11:46:18;2.60;;;0.80;;
47555;SDS011;33291;46.222;26.460;2023-11-21T11:48:46;6.25;;;0.50;;
47555;SDS011;33291;46.222;26.460;2023-11-21T11:51:13;0.63;;;0.38;;
47555;SDS011;33291;46.222;26.460;2023-11-21T11:53:42;3.63;;;0.68;;
47555;SDS011;33291;46.222;26.460;2023-11-21T11:56:19;3.38;;;2.10;;
47555;SDS011;33291;46.222;26.460;2023-11-21T11:58:46;3.78;;;2.17;;
47555;SDS011;33291;46.222;26.460;2023-11-21T12:01:13;10.05;;;3.83;;
47555;SDS011;33291;46.222;26.460;2023-11-21T12:03:38;5.70;;;1.85;;
47555;SDS011;33291;46.222;26.460;2023-11-21T12:06:04;5.20;;;1.70;;
47555;SDS011;33291;46.222;26.460;2023-11-21T12:08:31;5.00;;;1.30;;
47555;SDS011;33291;46.222;26.460;2023-11-21T12:10:57;1.38;;;0.75;;
47555;SDS011;33291;46.222;26.460;2023-11-21T12:13:23;2.03;;;0.93;;
47555;SDS011;33291;46.222;26.460;2023-11-21T12:15:49;1.95;;;1.10;;
47555;SDS011;33291;46.222;26.460;2023-11-21T12:18:14;6.05;;;3.30;;
47555;SDS011;33291;46.222;26.460;2023-11-21T12:20:40;2.05;;;1.23;;
47555;SDS011;33291;46.222;26.460;2023-11-21T12:23:07;1.67;;;0.88;;
47555;SDS011;33291;46.222;26.460;2023-11-21T12:25:34;3.60;;;0.50;;
47555;SDS011;33291;46.222;26.460;2023-11-21T12:28:02;0.82;;;0.40;;
47555;SDS011;33291;46.222;26.460;2023-11-21T12:30:32;1.38;;;0.63;;
47555;SDS011;33291;46.222;26.460;2023-11-21T12:33:03;2.95;;;1.00;;
47555;SDS011;33291;46.222;26.460;2023-11-21T12:35:30;4.10;;;2.30;;
47555;SDS011;33291;46.222;26.460;2023-11-21T12:38:01;2.15;;;1.00;;
47555;SDS011;33291;46.222;26.460;2023-11-21T12:40:29;2.42;;;1.35;;
47555;SDS011;33291;46.222;26.460;2023-11-21T12:42:55;4.82;;;2.10;;
47555;SDS011;33291;46.222;26.460;2023-11-21T12:48:02;7.25;;;2.55;;
47555;SDS011;33291;46.222;26.460;2023-11-21T12:50:32;3.75;;;1.80;;
47555;SDS011;33291;46.222;26.460;2023-11-21T12:53:00;11.15;;;4.97;;
47555;SDS011;33291;46.222;26.460;2023-11-21T12:55:29;23.55;;;9.43;;
47555;SDS011;33291;46.222;26.460;2023-11-21T12:57:56;12.43;;;6.22;;
47555;SDS011;33291;46.222;26.460;2023-11-21T13:00:33;8.63;;;4.70;;
47555;SDS011;33291;46.222;26.460;2023-11-21T13:03:02;5.15;;;2.10;;
47555;SDS011;33291;46.222;26.460;2023-11-21T13:05:29;5.53;;;2.20;;
47555;SDS011;33291;46.222;26.460;2023-11-21T13:07:56;4.45;;;2.60;;
47555;SDS011;33291;46.222;26.460;2023-11-21T13:10:23;7.60;;;3.38;;
47555;SDS011;33291;46.222;26.460;2023-11-21T13:12:56;5.50;;;3.00;;
47555;SDS011;33291;46.222;26.460;2023-11-21T13:15:24;5.97;;;2.85;;
47555;SDS011;33291;46.222;26.460;2023-11-21T13:17:49;1.20;;;0.70;;
47555;SDS011;33291;46.222;26.460;2023-11-21T13:20:16;6.82;;;3.40;;
47555;SDS011;33291;46.222;26.460;2023-11-21T13:22:52;1.63;;;0.50;;
47555;SDS011;33291;46.222;26.460;2023-11-21T13:25:26;0.80;;;0.60;;
47555;SDS011;33291;46.222;26.460;2023-11-21T13:27:59;10.13;;;5.05;;
47555;SDS011;33291;46.222;26.460;2023-11-21T13:30:28;12.82;;;6.97;;
47555;SDS011;33291;46.222;26.460;2023-11-21T13:33:00;19.05;;;9.35;;
47555;SDS011;33291;46.222;26.460;2023-11-21T13:35:30;17.15;;;8.35;;
47555;SDS011;33291;46.222;26.460;2023-11-21T13:40:34;24.35;;;13.25;;
47555;SDS011;33291;46.222;26.460;2023-11-21T13:43:08;7.43;;;3.13;;
47555;SDS011;33291;46.222;26.460;2023-11-21T13:45:37;2.47;;;0.85;;
47555;SDS011;33291;46.222;26.460;2023-11-21T13:48:04;15.57;;;7.47;;
47555;SDS011;33291;46.222;26.460;2023-11-21T13:50:35;27.75;;;13.75;;
47555;SDS011;33291;46.222;26.460;2023-11-21T13:53:01;11.57;;;4.55;;
47555;SDS011;33291;46.222;26.460;2023-11-21T13:55:44;1.63;;;0.45;;
47555;SDS011;33291;46.222;26.460;2023-11-21T13:58:10;0.98;;;0.40;;
47555;SDS011;33291;46.222;26.460;2023-11-21T14:00:41;3.50;;;0.60;;
47555;SDS011;33291;46.222;26.460;2023-11-21T14:03:11;10.93;;;4.75;;
47555;SDS011;33291;46.222;26.460;2023-11-21T14:05:49;4.68;;;2.15;;
47555;SDS011;33291;46.222;26.460;2023-11-21T14:08:18;4.47;;;1.52;;
47555;SDS011;33291;46.222;26.460;2023-11-21T14:10:46;3.20;;;0.50;;
47555;SDS011;33291;46.222;26.460;2023-11-21T14:13:22;1.05;;;0.50;;
47555;SDS011;33291;46.222;26.460;2023-11-21T14:15:49;0.70;;;0.40;;
47555;SDS011;33291;46.222;26.460;2023-11-21T14:18:27;7.82;;;0.60;;
47555;SDS011;33291;46.222;26.460;2023-11-21T14:21:03;3.60;;;1.67;;
47555;SDS011;33291;46.222;26.460;2023-11-21T14:23:33;11.93;;;5.90;;
47555;SDS011;33291;46.222;26.460;2023-11-21T14:26:01;10.27;;;4.50;;
47555;SDS011;33291;46.222;26.460;2023-11-21T14:28:26;4.45;;;0.70;;
47555;SDS011;33291;46.222;26.460;2023-11-21T14:30:52;0.52;;;0.28;;
47555;SDS011;33291;46.222;26.460;2023-11-21T14:33:17;1.77;;;0.68;;
47555;SDS011;33291;46.222;26.460;2023-11-21T14:35:43;0.88;;;0.40;;
47555;SDS011;33291;46.222;26.460;2023-11-21T14:38:08;2.67;;;0.50;;
47555;SDS011;33291;46.222;26.460;2023-11-21T14:40:35;3.25;;;0.25;;
47555;SDS011;33291;46.222;26.460;2023-11-21T14:43:04;1.67;;;0.82;;
47555;SDS011;33291;46.222;26.460;2023-11-21T14:45:33;6.50;;;1.75;;